Time;durP1;ratioP1;P1;durP2;ratioP2;P2;SDS_P1;SDS_P2;PMS_P1;PMS_P2;Temp;Humidity;BMP_temperature;BMP_pressure;BME280_temperature;BME280_humidity;BME280_pressure;Samples;Min_cycle;Max_cycle;Signal;HPM_P1;HPM_P2
2023/05/14 00:00:25;;;;;;;19.60;12.10;;;;;;;8.61;100.00;100817.47;5050294;28;20116;-78
2023/05/14 00:02:52;;;;;;;19.58;11.50;;;;;;;8.60;100.00;100819.53;5051539;28;20442;-79
2023/05/14 00:05:17;;;;;;;19.77;12.32;;;;;;;8.58;100.00;100813.50;5052873;28;20060;-79
2023/05/14 00:07:43;;;;;;;22.58;11.73;;;;;;;8.58;100.00;100810.66;5051554;28;20025;-79
2023/05/14 00:10:10;;;;;;;14.65;10.10;;;;;;;8.57;100.00;100803.38;5052775;28;20028;-80
2023/05/14 00:12:35;;;;;;;14.23;10.63;;;;;;;8.57;100.00;100806.22;5050415;28;20402;-78
2023/05/14 00:15:01;;;;;;;16.45;10.50;;;;;;;8.54;100.00;100806.34;5032841;28;20040;-79
2023/05/14 00:17:26;;;;;;;17.60;10.80;;;;;;;8.52;100.00;100800.31;5051673;28;20471;-80
2023/05/14 00:19:53;;;;;;;14.13;10.32;;;;;;;8.49;100.00;100810.59;5063535;28;20025;-81
2023/05/14 00:22:19;;;;;;;17.25;10.52;;;;;;;8.48;100.00;100802.53;5069677;28;20084;-81
2023/05/14 00:24:45;;;;;;;15.65;9.95;;;;;;;8.45;100.00;100807.09;5070782;28;20021;-80
2023/05/14 00:27:11;;;;;;;13.52;9.85;;;;;;;8.43;100.00;100800.28;5067320;28;20013;-80
2023/05/14 00:29:38;;;;;;;17.95;11.40;;;;;;;8.41;100.00;100808.50;5060396;28;20458;-80
2023/05/14 00:32:07;;;;;;;15.02;10.65;;;;;;;8.39;100.00;100801.22;5054801;28;20040;-80
2023/05/14 00:34:34;;;;;;;19.75;9.48;;;;;;;8.36;100.00;100804.97;5052895;28;20036;-80
2023/05/14 00:37:02;;;;;;;16.63;9.90;;;;;;;8.37;100.00;100802.94;5035201;28;20428;-79
2023/05/14 00:39:29;;;;;;;13.82;10.30;;;;;;;8.45;100.00;100800.63;5058535;28;20048;-77
2023/05/14 00:41:55;;;;;;;14.43;10.05;;;;;;;8.52;100.00;100803.16;5052383;28;20029;-79
2023/05/14 00:44:21;;;;;;;18.48;9.18;;;;;;;8.64;100.00;100805.94;5051519;28;20040;-78
2023/05/14 00:46:52;;;;;;;13.13;9.45;;;;;;;8.77;100.00;100802.97;5051565;28;20111;-79
2023/05/14 00:49:19;;;;;;;18.30;9.38;;;;;;;8.85;100.00;100804.31;5053398;28;20395;-80
2023/05/14 00:51:47;;;;;;;16.20;9.05;;;;;;;8.94;100.00;100806.38;5056191;28;20041;-79
2023/05/14 00:54:15;;;;;;;12.93;9.25;;;;;;;9.01;100.00;100804.03;5056321;28;20025;-78
2023/05/14 00:56:44;;;;;;;13.07;9.48;;;;;;;9.05;100.00;100804.66;5054967;28;20112;-79
2023/05/14 00:59:10;;;;;;;14.93;8.80;;;;;;;9.01;100.00;100792.63;5055024;28;20044;-79
2023/05/14 01:01:36;;;;;;;15.73;9.35;;;;;;;9.12;100.00;100804.38;5060468;28;20029;-80
2023/05/14 01:04:04;;;;;;;12.80;8.98;;;;;;;9.14;100.00;100807.56;5056689;28;20399;-79
2023/05/14 01:06:58;;;;;;;12.32;9.15;;;;;;;9.16;100.00;100799.31;5053184;28;20037;-78
2023/05/14 01:09:33;;;;;;;15.35;9.25;;;;;;;9.14;100.00;100804.72;5053180;28;20028;-79
2023/05/14 01:12:31;;;;;;;11.88;8.40;;;;;;;9.15;100.00;100802.66;5053354;28;20056;-80
2023/05/14 01:15:00;;;;;;;15.02;8.88;;;;;;;9.10;100.00;100794.72;5054074;28;20040;-80
2023/05/14 01:17:32;;;;;;;14.75;9.38;;;;;;;9.06;100.00;100799.75;5054409;28;20037;-79
2023/05/14 01:19:59;;;;;;;15.25;9.15;;;;;;;9.01;100.00;100792.63;5038497;28;20036;-79
2023/05/14 01:22:26;;;;;;;10.90;8.50;;;;;;;8.98;100.00;100801.31;5053199;28;20021;-79
2023/05/14 01:24:57;;;;;;;16.45;8.95;;;;;;;8.95;100.00;100793.72;5054163;28;20029;-80
2023/05/14 01:27:34;;;;;;;11.57;8.48;;;;;;;8.89;100.00;100793.53;5054080;28;20032;-80
2023/05/14 01:30:33;;;;;;;15.60;10.00;;;;;;;8.85;100.00;100792.09;5052797;28;20044;-79
2023/05/14 01:33:02;;;;;;;14.38;9.27;;;;;;;8.76;100.00;100782.25;5054191;28;20059;-78
2023/05/14 01:35:29;;;;;;;12.50;8.38;;;;;;;8.73;100.00;100783.19;5036023;28;20078;-80
2023/05/14 01:37:57;;;;;;;15.20;8.45;;;;;;;8.72;100.00;100780.81;5054629;28;20037;-78
2023/05/14 01:40:24;;;;;;;14.23;8.98;;;;;;;8.69;100.00;100785.38;5021067;28;20474;-80
2023/05/14 01:42:50;;;;;;;11.65;8.93;;;;;;;8.63;100.00;100795.00;5054110;28;20079;-81
2023/05/14 01:45:20;;;;;;;12.90;7.95;;;;;;;8.57;100.00;100791.16;5053537;28;20075;-79
2023/05/14 01:47:46;;;;;;;15.40;8.98;;;;;;;8.49;100.00;100789.88;5052559;28;20025;-80
2023/05/14 01:50:11;;;;;;;13.23;8.80;;;;;;;8.40;100.00;100796.31;5052416;28;20082;-79
2023/05/14 01:52:38;;;;;;;15.35;9.45;;;;;;;8.35;100.00;100785.53;5053841;28;20074;-79
2023/05/14 01:55:04;;;;;;;12.38;8.95;;;;;;;8.31;100.00;100784.88;5053834;28;20155;-82
2023/05/14 01:57:35;;;;;;;13.80;8.80;;;;;;;8.26;100.00;100783.41;5050918;28;20451;-79
2023/05/14 02:00:03;;;;;;;12.90;8.90;;;;;;;8.20;100.00;100790.97;5053584;28;20407;-80
2023/05/14 02:02:29;;;;;;;14.23;8.63;;;;;;;8.16;100.00;100783.84;5053410;28;20025;-79
2023/05/14 02:04:55;;;;;;;14.63;8.73;;;;;;;8.10;100.00;100780.75;5053769;28;20182;-78
2023/05/14 02:07:20;;;;;;;12.30;9.57;;;;;;;8.05;100.00;100778.53;5055373;28;20462;-79
2023/05/14 02:09:46;;;;;;;13.13;10.20;;;;;;;8.00;100.00;100781.97;5036236;28;20106;-79
2023/05/14 02:12:20;;;;;;;13.38;9.82;;;;;;;8.01;100.00;100777.84;5054280;28;20029;-79
2023/05/14 02:14:46;;;;;;;17.98;9.85;;;;;;;7.96;100.00;100781.31;5054110;28;20043;-78
2023/05/14 02:17:16;;;;;;;17.80;10.27;;;;;;;7.90;100.00;100778.25;5052455;28;20474;-79
2023/05/14 02:19:43;;;;;;;18.98;9.32;;;;;;;7.89;100.00;100776.66;5053234;28;20090;-79
2023/05/14 02:22:10;;;;;;;13.82;8.90;;;;;;;7.84;100.00;100768.72;5036371;28;20116;-79
2023/05/14 02:24:36;;;;;;;12.35;8.90;;;;;;;7.83;100.00;100772.00;5054421;28;20035;-79
2023/05/14 02:27:03;;;;;;;13.63;8.40;;;;;;;7.79;100.00;100774.19;5054544;28;20074;-81
2023/05/14 02:29:30;;;;;;;15.25;8.95;;;;;;;7.71;100.00;100767.19;5054453;28;20029;-80
2023/05/14 02:31:55;;;;;;;13.02;8.35;;;;;;;7.73;100.00;100773.19;5054622;28;20036;-77
2023/05/14 02:34:22;;;;;;;13.82;8.98;;;;;;;7.70;100.00;100774.94;5054524;28;20025;-78
2023/05/14 02:36:48;;;;;;;12.52;8.77;;;;;;;7.66;100.00;100773.47;5052603;28;20466;-78
2023/05/14 02:39:14;;;;;;;14.25;9.20;;;;;;;7.61;100.00;100765.53;5018039;28;20037;-79
2023/05/14 02:41:39;;;;;;;16.75;9.10;;;;;;;7.57;100.00;100777.00;5035864;28;20079;-77
2023/05/14 02:44:04;;;;;;;18.90;8.45;;;;;;;7.54;100.00;100775.09;5053760;28;20085;-79
2023/05/14 02:46:31;;;;;;;13.20;8.20;;;;;;;7.52;100.00;100769.09;5050766;28;20081;-79
2023/05/14 02:48:57;;;;;;;14.07;9.70;;;;;;;7.49;100.00;100773.66;5019378;28;20087;-80
2023/05/14 02:51:25;;;;;;;14.27;8.90;;;;;;;7.49;100.00;100781.38;5036317;28;20041;-78
2023/05/14 02:53:52;;;;;;;12.90;8.55;;;;;;;7.45;100.00;100775.81;5053637;28;20021;-79
2023/05/14 02:56:18;;;;;;;12.23;8.88;;;;;;;7.45;100.00;100777.88;5053112;28;20504;-79
2023/05/14 02:58:44;;;;;;;14.07;8.95;;;;;;;7.46;100.00;100777.41;5053649;28;20067;-80
2023/05/14 03:01:10;;;;;;;14.70;8.77;;;;;;;7.43;100.00;100766.94;5054848;28;20032;-79
2023/05/14 03:03:35;;;;;;;13.57;8.95;;;;;;;7.44;100.00;100774.22;5054290;28;20045;-79
2023/05/14 03:06:01;;;;;;;18.90;10.30;;;;;;;7.41;100.00;100775.16;5054009;28;20066;-79
2023/05/14 03:08:26;;;;;;;13.93;9.20;;;;;;;7.43;100.00;100777.53;5053582;28;20088;-79
2023/05/14 03:10:51;;;;;;;12.52;8.77;;;;;;;7.41;100.00;100769.47;5053760;28;20107;-81
2023/05/14 03:13:19;;;;;;;13.00;8.52;;;;;;;7.41;100.00;100771.53;5053081;28;20030;-79
2023/05/14 03:15:47;;;;;;;14.90;9.10;;;;;;;7.42;100.00;100771.03;5052869;28;20036;-80
2023/05/14 03:18:13;;;;;;;19.35;10.98;;;;;;;7.40;100.00;100775.59;5054020;28;20060;-79
2023/05/14 03:20:43;;;;;;;17.27;9.77;;;;;;;7.45;100.00;100780.72;5050165;28;20060;-80
2023/05/14 03:23:09;;;;;;;13.50;9.32;;;;;;;7.43;100.00;100772.63;5035394;28;20029;-78
2023/05/14 03:25:36;;;;;;;14.32;9.35;;;;;;;7.43;100.00;100771.84;5051972;28;20017;-79
2023/05/14 03:28:06;;;;;;;16.35;8.80;;;;;;;7.45;100.00;100780.72;5053748;28;20020;-80
2023/05/14 03:30:31;;;;;;;15.38;9.15;;;;;;;7.46;100.00;100788.78;5052198;28;20367;-78
2023/05/14 03:32:57;;;;;;;14.45;9.32;;;;;;;7.47;100.00;100781.06;5053690;28;20492;-79
2023/05/14 03:35:23;;;;;;;16.48;9.52;;;;;;;7.51;100.00;100785.38;5052119;28;20025;-79
2023/05/14 03:37:51;;;;;;;16.75;9.57;;;;;;;7.55;100.00;100782.38;5049864;28;20143;-79
2023/05/14 03:40:17;;;;;;;23.75;9.95;;;;;;;7.60;100.00;100790.34;5053011;28;20025;-79
2023/05/14 03:42:44;;;;;;;12.23;9.27;;;;;;;7.66;100.00;100779.97;5051984;28;20174;-79
2023/05/14 03:45:10;;;;;;;14.77;9.45;;;;;;;7.70;100.00;100774.13;5052818;28;20033;-79
2023/05/14 03:47:36;;;;;;;14.63;8.70;;;;;;;7.80;100.00;100775.78;5052140;28;20048;-80
2023/05/14 03:50:06;;;;;;;16.27;11.15;;;;;;;7.83;100.00;100774.88;5051645;28;20528;-79
2023/05/14 03:52:32;;;;;;;13.88;8.63;;;;;;;7.89;100.00;100773.81;5052831;28;20025;-79
2023/05/14 03:54:58;;;;;;;15.80;9.43;;;;;;;7.94;100.00;100772.41;5053124;28;20029;-79
2023/05/14 03:57:24;;;;;;;15.13;9.60;;;;;;;8.00;100.00;100772.63;5051519;28;20025;-78
2023/05/14 03:59:50;;;;;;;14.27;9.45;;;;;;;8.05;100.00;100764.28;5053202;28;20087;-79
2023/05/14 04:02:17;;;;;;;11.52;8.43;;;;;;;8.07;100.00;100761.75;5052779;28;20029;-81
2023/05/14 04:04:44;;;;;;;17.95;9.70;;;;;;;8.25;100.00;100775.34;5051490;28;20049;-80
2023/05/14 04:07:10;;;;;;;14.25;9.20;;;;;;;8.25;100.00;100761.91;5053083;28;20021;-80
2023/05/14 04:09:36;;;;;;;13.93;8.80;;;;;;;8.44;100.00;100762.81;5053040;28;20025;-79
2023/05/14 04:12:05;;;;;;;12.73;8.90;;;;;;;8.60;100.00;100758.91;5052911;28;20018;-79
2023/05/14 04:14:30;;;;;;;13.68;8.52;;;;;;;8.74;100.00;100761.19;5052450;28;20069;-80
2023/05/14 04:16:57;;;;;;;10.77;8.10;;;;;;;8.91;100.00;100761.72;5053902;28;20048;-81
2023/05/14 04:19:22;;;;;;;12.48;8.40;;;;;;;9.06;100.00;100768.41;5054048;28;20033;-80
2023/05/14 04:21:49;;;;;;;15.65;8.52;;;;;;;9.17;100.00;100766.69;5053303;28;20470;-79
2023/05/14 04:24:15;;;;;;;11.68;8.38;;;;;;;9.35;100.00;100768.78;5052654;28;20082;-81
2023/05/14 04:26:41;;;;;;;9.75;7.25;;;;;;;9.50;100.00;100768.94;5056165;28;20124;-79
2023/05/14 04:29:06;;;;;;;23.88;8.98;;;;;;;9.63;100.00;100773.25;5056463;28;20033;-80
2023/05/14 04:31:33;;;;;;;12.05;7.75;;;;;;;9.80;100.00;100775.81;5057603;28;20111;-79
2023/05/14 04:33:59;;;;;;;12.00;8.05;;;;;;;9.94;100.00;100764.53;5057064;28;20032;-81
2023/05/14 04:36:27;;;;;;;12.68;8.50;;;;;;;10.10;100.00;100767.06;5056635;28;20029;-80
2023/05/14 04:38:53;;;;;;;13.27;7.90;;;;;;;10.29;100.00;100767.81;5067098;28;20033;-82
2023/05/14 04:41:18;;;;;;;8.90;7.40;;;;;;;10.48;100.00;100777.91;5066342;28;20390;-79
2023/05/14 04:43:46;;;;;;;15.18;8.02;;;;;;;10.65;100.00;100761.19;5065187;28;20025;-80
2023/05/14 04:46:12;;;;;;;10.48;7.28;;;;;;;10.84;100.00;100771.28;5061271;28;20025;-79
2023/05/14 04:48:39;;;;;;;11.32;7.95;;;;;;;11.05;100.00;100760.84;5056367;28;20024;-79
2023/05/14 04:51:12;;;;;;;12.95;8.20;;;;;;;11.24;100.00;100759.47;5056459;28;20021;-81
2023/05/14 04:53:38;;;;;;;10.10;7.60;;;;;;;11.46;100.00;100766.97;5054947;28;20064;-79
2023/05/14 04:56:04;;;;;;;12.90;8.00;;;;;;;11.63;100.00;100766.03;5056501;28;20126;-79
2023/05/14 04:58:31;;;;;;;10.57;7.78;;;;;;;11.72;100.00;100751.66;5056634;28;20477;-78
2023/05/14 05:01:06;;;;;;;11.63;7.35;;;;;;;11.95;100.00;100755.75;5057179;28;20056;-80
2023/05/14 05:03:32;;;;;;;11.55;8.27;;;;;;;12.11;100.00;100757.34;5056802;28;20494;-80
2023/05/14 05:05:59;;;;;;;11.23;8.07;;;;;;;12.26;100.00;100753.19;5055960;28;20024;-80
2023/05/14 05:08:25;;;;;;;13.30;8.35;;;;;;;12.47;100.00;100748.38;5055127;28;20033;-77
2023/05/14 05:10:52;;;;;;;9.68;7.22;;;;;;;12.69;100.00;100745.09;5054847;28;20028;-80
2023/05/14 05:13:18;;;;;;;13.57;7.88;;;;;;;12.90;100.00;100745.94;5056867;28;20013;-78
2023/05/14 05:15:53;;;;;;;10.73;7.43;;;;;;;13.12;100.00;100740.53;5055762;28;20021;-78
2023/05/14 05:18:20;;;;;;;9.10;6.75;;;;;;;13.33;100.00;100744.22;5055463;28;20155;-77
2023/05/14 05:20:45;;;;;;;10.38;7.13;;;;;;;13.48;98.37;100753.53;5054560;28;20024;-78
2023/05/14 05:23:12;;;;;;;11.05;7.40;;;;;;;13.70;98.34;100753.03;5057681;28;20063;-77
2023/05/14 05:25:40;;;;;;;11.05;7.97;;;;;;;13.90;96.68;100744.41;5056017;28;20017;-79
2023/05/14 05:28:06;;;;;;;10.93;7.93;;;;;;;14.18;95.28;100750.47;5055589;28;20375;-78
2023/05/14 05:30:32;;;;;;;15.32;7.47;;;;;;;14.37;93.53;100743.88;5054648;28;20060;-84
2023/05/14 05:32:58;;;;;;;11.02;7.78;;;;;;;14.53;91.10;100750.28;5055904;28;20482;-81
2023/05/14 05:35:25;;;;;;;12.23;7.30;;;;;;;14.54;90.64;100738.25;5039139;28;20063;-85
2023/05/14 05:37:50;;;;;;;8.70;7.05;;;;;;;14.63;89.38;100749.59;5055985;28;20039;-84
2023/05/14 05:40:15;;;;;;;11.70;7.63;;;;;;;14.66;90.07;100744.91;5055691;28;20029;-82
2023/05/14 05:42:42;;;;;;;13.13;7.63;;;;;;;14.71;89.49;100739.22;5056123;28;20036;-83
2023/05/14 05:45:09;;;;;;;11.43;8.00;;;;;;;14.82;87.90;100744.25;5055846;28;20067;-83
2023/05/14 05:47:35;;;;;;;11.70;7.57;;;;;;;14.91;88.27;100741.19;5056155;28;20116;-83
2023/05/14 05:50:00;;;;;;;10.02;6.93;;;;;;;15.08;87.03;100726.88;5054019;28;20494;-84
2023/05/14 05:52:26;;;;;;;12.40;7.20;;;;;;;15.33;85.13;100753.97;5055795;28;20421;-84
2023/05/14 05:54:52;;;;;;;10.85;7.22;;;;;;;15.35;82.11;100754.28;5055128;28;20425;-84
2023/05/14 05:57:17;;;;;;;10.40;7.10;;;;;;;15.31;82.85;100727.81;5054966;28;20382;-85
2023/05/14 05:59:44;;;;;;;10.80;6.80;;;;;;;15.46;81.42;100745.69;5053347;28;20024;-85
2023/05/14 06:02:09;;;;;;;11.05;7.25;;;;;;;15.42;81.99;100748.00;5053990;28;20035;-84
2023/05/14 06:04:35;;;;;;;11.98;7.65;;;;;;;15.53;82.65;100739.41;5053872;28;20223;-84
2023/05/14 06:07:00;;;;;;;10.52;7.60;;;;;;;15.75;79.15;100738.75;5054563;28;20382;-86
2023/05/14 06:09:26;;;;;;;10.73;7.10;;;;;;;15.89;77.59;100752.97;5054929;28;20067;-83
2023/05/14 06:11:51;;;;;;;8.75;7.60;;;;;;;15.99;77.29;100753.50;5054016;28;20021;-83
2023/05/14 06:14:19;;;;;;;11.52;7.60;;;;;;;16.18;76.16;100743.06;5053610;28;20105;-82
2023/05/14 06:16:45;;;;;;;13.48;8.55;;;;;;;16.23;73.24;100750.94;5044088;28;20025;-80
2023/05/14 06:19:10;;;;;;;10.95;7.07;;;;;;;16.25;74.65;100738.88;5054465;28;20079;-84
2023/05/14 06:21:36;;;;;;;12.07;7.72;;;;;;;16.40;74.58;100722.88;5022883;28;20068;-84
2023/05/14 06:24:01;;;;;;;11.77;7.55;;;;;;;16.78;71.53;100740.78;5053967;28;20544;-85
2023/05/14 06:26:27;;;;;;;9.43;7.13;;;;;;;16.93;70.18;100747.06;5055899;28;20033;-84
2023/05/14 06:28:53;;;;;;;11.30;6.72;;;;;;;17.19;67.86;100735.19;5054897;28;20021;-83
2023/05/14 06:31:18;;;;;;;10.85;7.38;;;;;;;17.96;64.17;100744.91;5052955;28;20041;-87
2023/05/14 06:33:45;;;;;;;10.35;6.38;;;;;;;19.57;59.83;100748.53;5056207;28;20029;-88
2023/05/14 06:36:14;;;;;;;10.07;6.28;;;;;;;22.53;52.46;100748.50;5057954;28;20102;-82
2023/05/14 06:38:39;;;;;;;9.85;6.95;;;;;;;25.83;42.60;100752.41;5052132;28;20067;-83
2023/05/14 06:41:06;;;;;;;11.18;6.30;;;;;;;27.82;34.20;100754.16;5054579;28;20110;-78
2023/05/14 06:43:34;;;;;;;9.07;6.35;;;;;;;28.96;31.62;100743.03;5053632;28;20036;-78
2023/05/14 06:46:00;;;;;;;10.32;6.22;;;;;;;30.25;30.50;100728.84;5052350;28;20025;-76
2023/05/14 06:48:28;;;;;;;13.25;6.45;;;;;;;32.09;27.94;100731.00;5052199;28;20039;-77
2023/05/14 06:50:55;;;;;;;9.60;5.97;;;;;;;33.46;26.45;100717.72;5052355;28;20028;-75
2023/05/14 06:53:23;;;;;;;8.82;6.43;;;;;;;34.62;23.26;100702.44;5052933;28;20119;-73
2023/05/14 06:55:49;;;;;;;9.65;6.57;;;;;;;35.70;22.93;100696.44;5052906;28;20029;-76
2023/05/14 06:58:16;;;;;;;8.90;5.90;;;;;;;36.46;21.89;100684.72;5052201;28;20119;-75
2023/05/14 07:00:42;;;;;;;8.43;4.90;;;;;;;37.41;20.99;100679.53;5052825;28;20075;-76
2023/05/14 07:03:09;;;;;;;5.93;5.20;;;;;;;38.12;20.30;100671.41;5052612;28;20056;-75
2023/05/14 07:05:34;;;;;;;7.25;4.68;;;;;;;38.68;20.14;100673.00;5053243;28;20024;-73
2023/05/14 07:08:02;;;;;;;6.05;4.90;;;;;;;38.92;19.96;100661.22;5052587;28;20063;-73
2023/05/14 07:10:29;;;;;;;6.15;4.60;;;;;;;39.69;19.17;100652.13;5052636;28;20025;-77
2023/05/14 07:12:57;;;;;;;5.55;4.28;;;;;;;40.33;17.84;100649.81;5052621;28;20384;-75
2023/05/14 07:15:23;;;;;;;4.32;3.58;;;;;;;40.13;16.80;100647.69;5052839;28;20028;-75
2023/05/14 07:17:48;;;;;;;5.20;4.15;;;;;;;39.27;17.58;100637.16;5052385;28;20037;-75
2023/05/14 07:20:14;;;;;;;4.35;3.63;;;;;;;38.96;18.49;100629.25;5052933;28;20040;-75
2023/05/14 07:22:40;;;;;;;5.45;3.58;;;;;;;39.08;17.47;100637.94;5052660;28;20028;-74
2023/05/14 07:25:06;;;;;;;4.75;3.67;;;;;;;38.94;17.27;100640.38;5052856;28;20029;-74
2023/05/14 07:27:33;;;;;;;3.88;2.90;;;;;;;39.01;17.43;100644.34;5052782;28;20059;-77
2023/05/14 07:29:58;;;;;;;4.15;3.22;;;;;;;38.96;17.41;100628.47;5052652;28;20040;-77
2023/05/14 07:32:32;;;;;;;4.25;3.40;;;;;;;38.91;17.28;100627.56;5051438;28;20025;-77
2023/05/14 07:34:57;;;;;;;6.05;3.17;;;;;;;38.66;17.33;100631.09;5053249;28;20112;-73
2023/05/14 07:37:24;;;;;;;3.60;3.30;;;;;;;38.34;17.74;100626.81;5052876;28;20127;-75
2023/05/14 07:39:51;;;;;;;4.30;3.58;;;;;;;37.58;18.23;100619.09;5052476;28;20033;-75
2023/05/14 07:42:17;;;;;;;4.28;3.17;;;;;;;36.94;18.98;100626.69;5052118;28;20037;-75
2023/05/14 07:44:42;;;;;;;6.22;3.75;;;;;;;37.41;18.92;100628.81;5052653;28;20478;-76
2023/05/14 07:47:08;;;;;;;4.53;3.30;;;;;;;38.11;18.37;100625.13;5052280;28;20040;-77
2023/05/14 07:49:35;;;;;;;5.22;3.47;;;;;;;38.37;18.30;100619.44;5051941;28;20158;-77
2023/05/14 07:52:01;;;;;;;4.35;3.22;;;;;;;38.55;18.11;100611.22;5052829;28;20035;-75
2023/05/14 07:54:28;;;;;;;4.82;2.78;;;;;;;38.84;17.76;100616.09;5052915;28;20029;-77
2023/05/14 07:56:53;;;;;;;4.28;2.90;;;;;;;38.60;17.47;100609.91;5053383;28;20037;-79
2023/05/14 07:59:20;;;;;;;3.78;2.72;;;;;;;38.19;17.78;100607.56;5054599;28;20033;-76
2023/05/14 08:01:47;;;;;;;4.15;2.70;;;;;;;38.49;17.48;100602.78;5059198;28;20047;-78
2023/05/14 08:04:15;;;;;;;3.28;2.47;;;;;;;39.06;18.22;100607.19;5057993;28;20061;-77
2023/05/14 08:06:41;;;;;;;4.13;2.60;;;;;;;39.31;17.09;100606.59;5056989;28;20057;-77
2023/05/14 08:09:08;;;;;;;3.25;2.60;;;;;;;39.12;16.81;100601.44;5055427;28;20421;-79
2023/05/14 08:11:34;;;;;;;2.72;2.45;;;;;;;38.46;17.15;100604.13;5057163;28;20032;-81
2023/05/14 08:14:00;;;;;;;4.22;2.35;;;;;;;38.11;17.66;100596.00;5054275;28;20029;-82
2023/05/14 08:16:26;;;;;;;3.10;2.58;;;;;;;38.24;17.30;100590.56;5055950;28;20482;-82
2023/05/14 08:18:52;;;;;;;2.85;2.20;;;;;;;38.19;17.61;100597.81;5056776;28;20017;-82
2023/05/14 08:21:17;;;;;;;3.00;2.63;;;;;;;37.39;17.47;100593.69;5056843;28;20382;-83
2023/05/14 08:23:42;;;;;;;2.47;2.28;;;;;;;37.17;18.15;100593.47;5057098;28;20025;-84
2023/05/14 08:26:08;;;;;;;3.67;2.45;;;;;;;37.36;17.76;100597.28;5055570;28;20012;-81
2023/05/14 08:28:33;;;;;;;4.05;2.28;;;;;;;37.68;19.07;100584.50;5057057;28;20336;-81
2023/05/14 08:30:59;;;;;;;2.70;1.88;;;;;;;38.07;17.65;100598.81;5055798;28;20492;-82
2023/05/14 08:33:25;;;;;;;4.15;2.35;;;;;;;37.54;18.16;100583.91;5056970;28;20386;-81
2023/05/14 08:35:52;;;;;;;4.05;2.15;;;;;;;37.38;17.93;100583.22;5055249;28;20071;-83
2023/05/14 08:38:17;;;;;;;2.85;2.40;;;;;;;37.41;18.83;100566.19;5038564;28;20036;-82
2023/05/14 08:41:06;;;;;;;5.00;2.25;;;;;;;37.23;17.50;100589.97;5055109;28;20043;-83
2023/05/14 08:43:37;;;;;;;3.15;2.20;;;;;;;36.36;18.26;100565.09;5052152;28;20044;-84
2023/05/14 08:46:18;;;;;;;2.70;2.00;;;;;;;35.66;19.12;100562.38;5055134;28;20504;-82
2023/05/14 08:49:15;;;;;;;3.28;2.97;;;;;;;35.45;19.60;100560.56;5056886;28;20017;-81
2023/05/14 08:51:45;;;;;;;2.45;1.88;;;;;;;35.41;19.16;100572.22;5056176;28;20483;-80
2023/05/14 08:54:14;;;;;;;3.22;2.08;;;;;;;35.09;19.56;100562.41;5039658;28;20059;-81
2023/05/14 08:56:47;;;;;;;3.10;2.20;;;;;;;35.12;19.53;100564.06;5056435;28;20066;-80
2023/05/14 08:59:14;;;;;;;3.53;2.05;;;;;;;34.97;19.87;100568.44;5057421;28;20056;-79
2023/05/14 09:01:51;;;;;;;2.40;1.92;;;;;;;35.22;19.19;100558.63;5056752;28;20029;-78
2023/05/14 09:04:23;;;;;;;2.25;2.00;;;;;;;35.02;19.65;100557.53;5054850;28;20053;-78
2023/05/14 09:06:50;;;;;;;4.75;2.17;;;;;;;34.93;20.02;100552.63;5055384;28;20370;-78
2023/05/14 09:09:16;;;;;;;4.22;1.88;;;;;;;34.70;19.54;100542.53;5038606;28;20029;-78
2023/05/14 09:11:47;;;;;;;4.78;2.08;;;;;;;34.15;19.88;100543.88;5054208;28;20103;-79
2023/05/14 09:14:12;;;;;;;3.10;2.20;;;;;;;33.73;20.32;100539.22;5054565;28;20033;-79
2023/05/14 09:16:41;;;;;;;3.08;2.00;;;;;;;33.33;21.53;100549.44;5054578;28;20466;-78
2023/05/14 09:19:09;;;;;;;3.33;2.05;;;;;;;33.12;21.02;100550.41;5053823;28;20516;-78
2023/05/14 09:21:34;;;;;;;2.25;1.65;;;;;;;32.77;21.48;100552.69;5051274;28;20135;-79
2023/05/14 09:24:05;;;;;;;1.70;1.58;;;;;;;32.06;20.98;100545.97;5053133;28;20103;-81
2023/05/14 09:26:32;;;;;;;2.92;2.17;;;;;;;31.45;22.20;100538.22;5038347;28;20383;-82
2023/05/14 09:29:03;;;;;;;3.30;1.70;;;;;;;31.30;22.84;100538.66;5054087;28;20041;-85
2023/05/14 09:31:30;;;;;;;2.43;1.67;;;;;;;31.10;22.75;100531.34;5054292;28;20458;-83
2023/05/14 09:33:58;;;;;;;2.88;2.10;;;;;;;30.57;22.99;100537.28;5054175;28;20326;-81
2023/05/14 09:36:27;;;;;;;2.28;1.70;;;;;;;29.98;23.93;100522.63;5050934;28;20037;-80
2023/05/14 09:38:56;;;;;;;3.60;1.92;;;;;;;29.86;24.26;100522.53;5055564;28;20047;-81
2023/05/14 09:41:24;;;;;;;2.55;1.88;;;;;;;29.71;24.60;100522.91;5055381;28;20296;-79
2023/05/14 09:43:51;;;;;;;2.00;1.80;;;;;;;29.49;24.59;100513.13;5054002;28;20040;-79
2023/05/14 09:46:17;;;;;;;2.28;1.80;;;;;;;29.46;24.92;100511.44;5055301;28;20116;-78
2023/05/14 09:48:45;;;;;;;3.65;1.92;;;;;;;29.64;25.59;100503.97;5055385;28;20032;-79
2023/05/14 09:51:12;;;;;;;1.85;1.65;;;;;;;29.92;24.34;100513.38;5055097;28;20489;-80
2023/05/14 09:53:40;;;;;;;3.30;1.88;;;;;;;29.68;24.00;100512.34;5053928;28;20021;-78
2023/05/14 09:56:05;;;;;;;2.22;1.85;;;;;;;29.39;25.84;100496.88;5055402;28;20021;-79
2023/05/14 09:58:31;;;;;;;2.15;1.70;;;;;;;29.36;24.20;100509.91;5055553;28;20482;-81
2023/05/14 10:00:57;;;;;;;1.67;1.48;;;;;;;29.23;25.07;100491.31;5055226;28;20554;-80
2023/05/14 10:03:25;;;;;;;1.40;1.30;;;;;;;29.21;25.13;100496.28;5055080;28;20051;-81
2023/05/14 10:05:52;;;;;;;1.90;1.65;;;;;;;29.17;24.95;100487.16;5053695;28;20470;-80
2023/05/14 10:08:27;;;;;;;4.40;1.75;;;;;;;28.99;24.62;100485.72;5054609;28;20024;-78
2023/05/14 10:10:59;;;;;;;3.20;1.80;;;;;;;28.66;24.34;100495.00;5053678;28;20045;-79
2023/05/14 10:13:36;;;;;;;1.83;1.40;;;;;;;28.15;25.43;100477.69;5053369;28;20037;-79
2023/05/14 10:16:27;;;;;;;1.85;1.50;;;;;;;27.85;25.61;100482.66;5054769;28;20122;-82
2023/05/14 10:19:15;;;;;;;2.78;1.70;;;;;;;27.39;25.89;100491.38;5054678;28;20024;-84
2023/05/14 10:22:00;;;;;;;2.15;1.60;;;;;;;26.97;26.82;100482.69;5052369;28;20048;-81
2023/05/14 10:24:27;;;;;;;2.53;1.70;;;;;;;26.77;28.38;100489.78;5052910;28;20085;-80
2023/05/14 10:26:55;;;;;;;2.45;2.00;;;;;;;26.89;29.34;100492.97;5052589;28;20443;-80
2023/05/14 10:29:33;;;;;;;3.33;1.73;;;;;;;27.11;27.90;100498.53;5054029;28;20032;-80
2023/05/14 10:32:04;;;;;;;2.17;1.70;;;;;;;27.26;28.25;100488.78;5054103;28;20547;-79
2023/05/14 10:34:41;;;;;;;1.83;1.58;;;;;;;27.14;27.25;100482.69;5050465;28;20108;-80
2023/05/14 10:37:27;;;;;;;5.15;1.90;;;;;;;26.41;27.61;100486.63;5052053;28;20025;-78
2023/05/14 10:40:06;;;;;;;2.97;1.50;;;;;;;25.79;28.48;100474.59;5050205;28;20044;-81
2023/05/14 10:42:38;;;;;;;3.15;1.70;;;;;;;25.53;29.34;100469.31;5055094;28;20244;-81
2023/05/14 10:45:07;;;;;;;1.83;1.73;;;;;;;25.14;29.55;100481.78;5057912;28;20020;-80
2023/05/14 10:47:37;;;;;;;1.70;1.60;;;;;;;24.94;29.87;100463.94;5061886;28;20033;-80
2023/05/14 10:50:04;;;;;;;2.33;1.65;;;;;;;24.60;29.97;100479.03;5052380;28;20106;-80
2023/05/14 10:52:30;;;;;;;1.98;1.70;;;;;;;24.39;30.68;100463.91;5052451;28;20104;-80
2023/05/14 10:55:08;;;;;;;1.77;1.50;;;;;;;24.30;31.31;100463.72;5068812;28;20411;-80
2023/05/14 10:57:35;;;;;;;1.67;1.58;;;;;;;24.08;30.75;100468.19;5069050;28;20032;-79
2023/05/14 11:00:01;;;;;;;3.58;2.42;;;;;;;23.62;31.20;100474.00;5069997;28;20024;-80
2023/05/14 11:02:29;;;;;;;3.00;2.40;;;;;;;23.00;31.94;100468.56;5070361;28;20020;-81
2023/05/14 11:05:10;;;;;;;4.30;2.85;;;;;;;22.50;32.52;100476.63;5069471;28;20424;-82
2023/05/14 11:07:39;;;;;;;2.05;1.85;;;;;;;21.96;33.09;100462.22;5070672;28;20067;-80
2023/05/14 11:10:12;;;;;;;3.00;1.90;;;;;;;21.69;34.64;100455.78;5070448;28;20064;-80
2023/05/14 11:12:39;;;;;;;3.05;1.55;;;;;;;21.69;34.97;100458.69;5069163;28;20033;-80
2023/05/14 11:15:13;;;;;;;5.63;2.40;;;;;;;21.80;35.01;100454.72;5070446;28;20121;-79
2023/05/14 11:17:41;;;;;;;2.30;2.10;;;;;;;21.62;34.47;100468.13;5071840;28;20029;-81
2023/05/14 11:20:07;;;;;;;4.50;2.47;;;;;;;21.44;34.56;100463.25;5070666;28;20082;-81
2023/05/14 11:22:34;;;;;;;2.25;1.85;;;;;;;21.44;35.11;100464.03;5070059;28;20462;-80